createdAt,value
2018-09-23T00:02:14.705Z,94.70
2018-09-23T00:04:43.746Z,94.80
2018-09-23T00:07:12.845Z,94.90
2018-09-23T00:09:41.846Z,95.00
2018-09-23T00:12:11.012Z,94.80
2018-09-23T00:14:40.130Z,95.00
2018-09-23T00:17:09.257Z,94.90
2018-09-23T00:19:38.301Z,94.90
2018-09-23T00:22:07.540Z,94.90
2018-09-23T00:24:36.588Z,94.90
2018-09-23T00:27:05.786Z,95.00
2018-09-23T00:29:40.257Z,95.10
2018-09-23T00:32:09.305Z,95.10
2018-09-23T00:34:38.397Z,95.00
2018-09-23T00:37:07.739Z,95.20
2018-09-23T00:39:36.772Z,95.30
2018-09-23T00:42:05.833Z,95.90
2018-09-23T00:44:34.843Z,95.80
2018-09-23T00:47:03.977Z,95.70
2018-09-23T00:49:33.001Z,96.00
2018-09-23T00:52:01.999Z,96.40
2018-09-23T00:54:31.095Z,96.50
2018-09-23T00:57:00.180Z,96.50
2018-09-23T00:59:29.250Z,96.70
2018-09-23T01:01:58.342Z,96.90
2018-09-23T01:04:27.402Z,97.60
2018-09-23T01:06:56.458Z,97.60
2018-09-23T01:09:25.524Z,97.80
2018-09-23T01:15:04.773Z,98.60
2018-09-23T01:17:33.769Z,98.80
2018-09-23T01:20:02.799Z,98.70
2018-09-23T01:22:31.948Z,99.10
2018-09-23T01:25:01.154Z,99.40
2018-09-23T01:27:33.071Z,99.50
2018-09-23T01:30:02.068Z,99.70
2018-09-23T01:32:31.120Z,99.80
2018-09-23T01:35:00.146Z,99.90
2018-09-23T01:37:29.154Z,99.90
2018-09-23T01:39:58.266Z,99.90
2018-09-23T01:42:27.347Z,99.90
2018-09-23T01:44:56.374Z,99.90
2018-09-23T01:47:25.427Z,99.90
2018-09-23T01:49:54.709Z,99.90
2018-09-23T01:52:23.818Z,99.90
2018-09-23T01:54:52.918Z,99.90
2018-09-23T01:57:21.989Z,99.90
2018-09-23T01:59:51.121Z,99.90
2018-09-23T02:02:20.138Z,99.90
2018-09-23T02:04:49.130Z,99.90
2018-09-23T02:07:18.166Z,99.90
2018-09-23T02:09:47.308Z,99.90
2018-09-23T02:12:16.330Z,99.90
2018-09-23T02:14:45.318Z,99.90
2018-09-23T02:17:14.354Z,99.90
2018-09-23T02:19:43.451Z,99.90
2018-09-23T02:22:12.513Z,99.90
2018-09-23T02:24:41.602Z,99.90
2018-09-23T02:27:10.622Z,99.90
2018-09-23T02:29:39.702Z,99.90
2018-09-23T02:32:08.782Z,99.90
2018-09-23T02:34:37.765Z,99.90
2018-09-23T02:37:06.788Z,99.90
2018-09-23T02:39:35.874Z,99.90
2018-09-23T02:42:05.023Z,99.90
2018-09-23T02:44:33.998Z,99.90
2018-09-23T02:47:03.189Z,99.90
2018-09-23T02:49:32.395Z,99.90
2018-09-23T02:52:01.409Z,99.90
2018-09-23T02:54:30.432Z,99.90
2018-09-23T02:56:59.447Z,99.90
2018-09-23T02:59:28.553Z,99.90
2018-09-23T03:01:57.546Z,99.90
2018-09-23T03:04:26.629Z,99.90
2018-09-23T03:06:55.729Z,99.90
2018-09-23T03:09:24.762Z,99.90
2018-09-23T03:11:53.802Z,99.90
2018-09-23T03:14:22.779Z,99.90
2018-09-23T03:16:51.807Z,99.90
2018-09-23T03:19:27.267Z,99.90
2018-09-23T03:21:56.357Z,99.90
2018-09-23T03:24:25.431Z,99.90
2018-09-23T03:26:54.509Z,99.90
2018-09-23T03:29:23.529Z,99.90
2018-09-23T03:31:52.623Z,99.90
2018-09-23T03:34:21.593Z,99.90
2018-09-23T03:36:50.607Z,99.90
2018-09-23T03:39:19.613Z,99.90
2018-09-23T03:41:48.651Z,99.90
2018-09-23T03:44:17.649Z,99.90
2018-09-23T03:46:46.651Z,99.90
2018-09-23T03:49:15.788Z,99.90
2018-09-23T03:51:44.851Z,99.90
2018-09-23T03:54:14.359Z,99.90
2018-09-23T03:56:44.087Z,99.90
2018-09-23T03:59:13.486Z,99.90
2018-09-23T04:01:42.590Z,99.90
2018-09-23T04:04:11.666Z,99.90
2018-09-23T04:06:40.656Z,99.90
2018-09-23T04:09:09.767Z,99.90
2018-09-23T04:11:38.935Z,99.90
2018-09-23T04:14:07.947Z,99.90
2018-09-23T04:16:36.921Z,99.90
2018-09-23T04:19:07.821Z,99.90
2018-09-23T04:21:36.857Z,99.90
2018-09-23T04:24:05.957Z,99.90
2018-09-23T04:26:34.977Z,99.90
2018-09-23T04:29:04.049Z,99.90
2018-09-23T04:31:33.163Z,99.90
2018-09-23T04:34:02.241Z,99.90
2018-09-23T04:36:31.206Z,99.90
2018-09-23T04:39:00.243Z,99.90
2018-09-23T04:41:29.337Z,99.90
2018-09-23T04:43:58.444Z,99.90
2018-09-23T04:46:27.510Z,99.90
2018-09-23T04:48:56.489Z,99.90
2018-09-23T04:51:25.515Z,99.90
2018-09-23T04:53:54.490Z,99.90
2018-09-23T04:56:23.571Z,99.90
2018-09-23T04:58:52.696Z,99.90
2018-09-23T05:01:21.794Z,99.90
2018-09-23T05:03:50.784Z,99.90
2018-09-23T05:06:19.793Z,99.90
2018-09-23T05:08:48.850Z,99.90
2018-09-23T05:11:17.978Z,99.90
2018-09-23T05:13:47.048Z,99.90
2018-09-23T05:16:16.155Z,99.90
2018-09-23T05:18:45.256Z,99.90
2018-09-23T05:21:14.355Z,99.90
2018-09-23T05:23:43.406Z,99.90
2018-09-23T05:26:12.416Z,99.90
2018-09-23T05:28:41.434Z,99.90
2018-09-23T05:31:10.570Z,99.90
2018-09-23T05:33:39.605Z,99.90
2018-09-23T05:36:08.711Z,99.90
2018-09-23T05:38:37.846Z,99.90
2018-09-23T05:41:07.010Z,99.90
2018-09-23T05:43:36.006Z,99.90
2018-09-23T05:46:05.003Z,99.90
2018-09-23T05:48:34.090Z,99.90
2018-09-23T05:51:03.082Z,99.90
2018-09-23T05:53:32.162Z,99.90
2018-09-23T05:56:01.167Z,99.90
2018-09-23T05:58:30.236Z,99.90
2018-09-23T06:00:59.274Z,99.90
2018-09-23T06:03:28.362Z,99.90
2018-09-23T06:05:57.576Z,99.90
2018-09-23T06:08:30.604Z,99.90
2018-09-23T06:10:59.655Z,99.90
2018-09-23T06:13:28.950Z,99.90
2018-09-23T06:15:58.018Z,99.90
2018-09-23T06:18:27.269Z,99.90
2018-09-23T06:20:56.241Z,99.90
2018-09-23T06:23:25.265Z,99.90
2018-09-23T06:25:54.283Z,99.90
2018-09-23T06:28:23.309Z,99.90
2018-09-23T06:30:52.395Z,99.90
2018-09-23T06:33:21.703Z,99.90
2018-09-23T06:35:50.757Z,99.90
2018-09-23T06:38:19.739Z,99.90
2018-09-23T06:40:48.796Z,99.90
2018-09-23T06:43:17.878Z,99.90
2018-09-23T06:45:46.870Z,99.90
2018-09-23T06:48:15.930Z,99.90
2018-09-23T06:50:44.974Z,99.90
2018-09-23T06:53:14.001Z,99.90
2018-09-23T06:55:42.969Z,99.90
2018-09-23T06:58:12.009Z,99.90
2018-09-23T07:00:41.017Z,99.90
2018-09-23T07:03:10.133Z,99.90
2018-09-23T07:05:39.181Z,99.90
2018-09-23T07:08:08.281Z,99.90
2018-09-23T07:10:37.320Z,99.90
2018-09-23T07:13:06.478Z,99.90
2018-09-23T07:15:35.437Z,99.90
2018-09-23T07:18:04.551Z,99.90
2018-09-23T07:20:33.585Z,99.90
2018-09-23T07:23:02.697Z,99.90
2018-09-23T07:25:31.732Z,99.90
2018-09-23T07:28:00.737Z,99.90
2018-09-23T07:30:29.701Z,99.90
2018-09-23T07:32:58.693Z,99.90
2018-09-23T07:35:27.669Z,99.90
2018-09-23T07:37:56.706Z,99.90
2018-09-23T07:40:25.745Z,99.90
2018-09-23T07:42:54.960Z,99.90
2018-09-23T07:45:23.938Z,99.90
2018-09-23T07:47:53.087Z,99.90
2018-09-23T07:50:22.171Z,99.90
2018-09-23T07:52:51.206Z,99.90
2018-09-23T07:55:20.298Z,99.90
2018-09-23T07:57:49.396Z,99.90
2018-09-23T08:00:18.382Z,99.90
2018-09-23T08:02:47.382Z,99.90
2018-09-23T08:05:16.489Z,99.90
2018-09-23T08:07:45.545Z,99.90
2018-09-23T08:10:14.582Z,99.90
2018-09-23T08:12:43.855Z,99.90
2018-09-23T08:15:12.964Z,99.90
2018-09-23T08:17:42.022Z,99.90
2018-09-23T08:20:11.165Z,99.90
2018-09-23T08:22:40.210Z,99.90
2018-09-23T08:25:09.222Z,99.90
2018-09-23T08:27:38.248Z,99.90
2018-09-23T08:30:07.623Z,99.90
2018-09-23T08:32:36.742Z,99.90
2018-09-23T08:35:05.873Z,99.90
2018-09-23T08:37:34.887Z,99.90
2018-09-23T08:40:03.952Z,99.90
2018-09-23T08:42:33.038Z,99.90
2018-09-23T08:45:02.053Z,99.90
2018-09-23T08:47:31.063Z,99.90
2018-09-23T08:50:00.067Z,99.90
2018-09-23T08:52:29.087Z,99.90
2018-09-23T08:54:58.197Z,99.90
2018-09-23T08:57:27.240Z,99.90
2018-09-23T08:59:56.206Z,99.90
2018-09-23T09:02:25.247Z,99.90
2018-09-23T09:04:54.252Z,99.90
2018-09-23T09:07:23.368Z,99.90
2018-09-23T09:09:52.329Z,99.90
2018-09-23T09:12:21.622Z,99.90
2018-09-23T09:14:50.663Z,99.90
2018-09-23T09:17:19.711Z,99.90
2018-09-23T09:19:48.801Z,99.90
2018-09-23T09:22:17.819Z,99.90
2018-09-23T09:24:46.930Z,99.90
2018-09-23T09:27:15.995Z,99.90
2018-09-23T09:29:45.180Z,99.90
2018-09-23T09:32:14.202Z,99.90
2018-09-23T09:34:43.318Z,99.90
2018-09-23T09:37:12.386Z,99.90
2018-09-23T09:39:41.424Z,99.90
2018-09-23T09:42:10.453Z,99.90
2018-09-23T09:44:39.526Z,99.90
2018-09-23T09:47:08.842Z,99.90
2018-09-23T09:49:37.846Z,99.90
2018-09-23T09:52:07.274Z,99.90
2018-09-23T09:54:36.302Z,99.90
2018-09-23T09:57:05.460Z,99.90
2018-09-23T09:59:34.583Z,99.90
2018-09-23T10:02:03.662Z,99.90
2018-09-23T10:04:32.692Z,99.90
2018-09-23T10:07:01.746Z,99.90
2018-09-23T10:09:30.798Z,99.90
2018-09-23T10:11:59.833Z,99.90
2018-09-23T10:14:28.971Z,99.90
2018-09-23T10:16:58.085Z,99.90
2018-09-23T10:19:27.100Z,99.90
2018-09-23T10:21:56.234Z,99.90
2018-09-23T10:24:26.435Z,99.90
2018-09-23T10:26:55.517Z,99.90
2018-09-23T10:29:24.524Z,99.90
2018-09-23T10:31:53.577Z,99.90
2018-09-23T10:34:22.625Z,99.90
2018-09-23T10:36:51.661Z,99.90
2018-09-23T10:39:20.721Z,99.90
2018-09-23T10:41:49.801Z,99.90
2018-09-23T10:44:18.883Z,99.90
2018-09-23T10:46:47.899Z,99.90
2018-09-23T10:49:16.965Z,99.90
2018-09-23T10:51:46.067Z,99.90
2018-09-23T10:54:15.091Z,99.90
2018-09-23T10:56:44.648Z,99.90
2018-09-23T10:59:14.005Z,99.90
2018-09-23T11:01:43.062Z,99.90
2018-09-23T11:04:12.191Z,99.90
2018-09-23T11:06:41.159Z,99.90
2018-09-23T11:09:10.409Z,99.90
2018-09-23T11:11:39.496Z,99.90
2018-09-23T11:14:08.592Z,99.90
2018-09-23T11:16:37.553Z,99.90
2018-09-23T11:19:06.611Z,99.90
2018-09-23T11:21:35.733Z,99.90
2018-09-23T11:24:05.118Z,99.90
2018-09-23T11:26:34.385Z,99.90
2018-09-23T11:29:03.496Z,99.90
2018-09-23T11:31:32.520Z,99.90
2018-09-23T11:34:01.519Z,99.90
2018-09-23T11:36:31.274Z,99.90
2018-09-23T11:39:01.239Z,99.90
2018-09-23T11:41:30.326Z,99.90
2018-09-23T11:43:59.450Z,99.90
2018-09-23T11:46:28.482Z,99.90
2018-09-23T11:48:57.477Z,99.90
2018-09-23T11:51:26.474Z,99.90
2018-09-23T11:53:55.502Z,99.90
2018-09-23T11:56:24.604Z,99.90
2018-09-23T11:58:53.684Z,99.90
2018-09-23T12:01:22.666Z,99.90
2018-09-23T12:03:51.754Z,99.90
2018-09-23T12:06:20.876Z,99.90
2018-09-23T12:08:49.846Z,99.90
2018-09-23T12:11:19.074Z,99.90
2018-09-23T12:13:48.138Z,99.90
2018-09-23T12:16:17.328Z,99.90
2018-09-23T12:18:46.314Z,99.90
2018-09-23T12:21:15.326Z,99.90
2018-09-23T12:23:44.538Z,99.90
2018-09-23T12:26:13.628Z,99.90
2018-09-23T12:28:42.722Z,99.90
2018-09-23T12:31:11.810Z,99.90
2018-09-23T12:33:41.870Z,99.90
2018-09-23T12:36:10.932Z,99.90
2018-09-23T12:38:40.014Z,99.90
2018-09-23T12:41:09.138Z,99.90
2018-09-23T12:43:38.146Z,99.90
2018-09-23T12:46:07.279Z,99.90
2018-09-23T12:48:36.318Z,99.90
2018-09-23T12:51:05.402Z,99.90
2018-09-23T12:53:34.522Z,99.90
2018-09-23T12:56:03.574Z,99.90
2018-09-23T12:58:32.658Z,99.90
2018-09-23T13:01:01.654Z,99.90
2018-09-23T13:03:30.670Z,99.90
2018-09-23T13:05:59.794Z,99.90
2018-09-23T13:08:28.872Z,99.90
2018-09-23T13:10:57.977Z,99.90
2018-09-23T13:13:28.061Z,99.90
2018-09-23T13:15:57.186Z,99.90
2018-09-23T13:18:26.232Z,99.90
2018-09-23T13:20:55.229Z,99.90
2018-09-23T13:23:24.234Z,99.90
2018-09-23T13:25:53.229Z,99.90
2018-09-23T13:28:22.198Z,99.90
2018-09-23T13:30:51.378Z,99.90
2018-09-23T13:33:20.370Z,99.90
2018-09-23T13:35:49.421Z,99.90
2018-09-23T13:38:18.411Z,99.90
2018-09-23T13:40:47.478Z,99.90
2018-09-23T13:43:16.514Z,99.90
2018-09-23T13:45:45.552Z,99.90
2018-09-23T13:48:14.558Z,99.90
2018-09-23T13:50:43.574Z,99.90
2018-09-23T13:53:12.641Z,99.90
2018-09-23T13:55:41.633Z,99.90
2018-09-23T13:58:10.627Z,99.90
2018-09-23T14:00:39.633Z,99.90
2018-09-23T14:03:10.045Z,99.90
2018-09-23T14:05:39.079Z,99.90
2018-09-23T14:08:08.069Z,99.90
2018-09-23T14:10:37.172Z,99.90
2018-09-23T14:13:06.223Z,99.90
2018-09-23T14:15:35.278Z,99.90
2018-09-23T14:18:04.508Z,99.90
2018-09-23T14:20:33.512Z,99.90
2018-09-23T14:23:02.514Z,99.90
2018-09-23T14:25:31.610Z,99.90
2018-09-23T14:28:00.620Z,99.90
2018-09-23T14:30:29.722Z,99.90
2018-09-23T14:32:58.840Z,99.90
2018-09-23T14:35:27.988Z,99.90
2018-09-23T14:37:57.008Z,99.90
2018-09-23T14:40:26.026Z,99.90
2018-09-23T14:42:55.049Z,99.90
2018-09-23T14:45:24.185Z,99.90
2018-09-23T14:47:53.213Z,99.90
2018-09-23T14:50:22.198Z,99.90
2018-09-23T14:52:51.233Z,99.90
2018-09-23T14:55:20.246Z,99.90
2018-09-23T14:57:49.247Z,99.90
2018-09-23T15:00:18.235Z,99.90
2018-09-23T15:02:47.308Z,99.90
2018-09-23T15:05:16.353Z,99.90
2018-09-23T15:07:45.436Z,99.90
2018-09-23T15:10:14.502Z,99.90
2018-09-23T15:12:43.501Z,99.90
2018-09-23T15:15:12.612Z,99.90
2018-09-23T15:17:41.618Z,99.90
2018-09-23T15:20:10.580Z,99.90
2018-09-23T15:22:39.578Z,99.90
2018-09-23T15:25:08.566Z,99.90
2018-09-23T15:27:37.876Z,99.90
2018-09-23T15:30:06.862Z,99.90
2018-09-23T15:32:35.834Z,99.90
2018-09-23T15:35:04.926Z,99.90
2018-09-23T15:37:34.982Z,99.90
2018-09-23T15:40:03.962Z,99.90
2018-09-23T15:42:33.057Z,99.90
2018-09-23T15:45:02.187Z,99.90
2018-09-23T15:47:31.241Z,99.90
2018-09-23T15:50:00.325Z,99.90
2018-09-23T15:52:29.351Z,99.90
2018-09-23T15:54:58.453Z,99.90
2018-09-23T15:57:27.451Z,99.90
2018-09-23T15:59:56.521Z,99.90
2018-09-23T16:02:25.657Z,99.90
2018-09-23T16:04:54.797Z,99.90
2018-09-23T16:07:23.852Z,99.90
2018-09-23T16:09:52.921Z,99.90
2018-09-23T16:12:21.969Z,99.90
2018-09-23T16:14:50.989Z,99.90
2018-09-23T16:17:20.007Z,99.90
2018-09-23T16:19:49.149Z,99.90
2018-09-23T16:22:18.161Z,99.90
2018-09-23T16:24:47.203Z,99.90
2018-09-23T16:27:16.217Z,99.90
2018-09-23T16:29:45.248Z,99.90
2018-09-23T16:32:14.315Z,99.90
2018-09-23T16:34:43.347Z,99.90
2018-09-23T16:37:12.470Z,99.90
2018-09-23T16:39:41.450Z,99.90
2018-09-23T16:42:10.515Z,99.90
2018-09-23T16:44:39.493Z,99.90
2018-09-23T16:47:08.525Z,99.90
2018-09-23T16:49:37.566Z,99.90
2018-09-23T16:52:06.576Z,99.90
2018-09-23T16:54:35.710Z,99.90
2018-09-23T16:57:04.673Z,99.90
2018-09-23T16:59:33.771Z,99.90
2018-09-23T17:02:02.801Z,99.90
2018-09-23T17:04:31.783Z,99.90
2018-09-23T17:07:00.857Z,99.90
2018-09-23T17:09:44.761Z,99.90
2018-09-23T17:12:29.453Z,99.90
2018-09-23T17:14:58.446Z,99.90
2018-09-23T17:17:27.526Z,99.90
2018-09-23T17:19:56.566Z,99.90
2018-09-23T17:22:25.606Z,99.90
2018-09-23T17:24:54.566Z,99.90
2018-09-23T17:27:23.637Z,99.90
2018-09-23T17:29:52.688Z,99.90
2018-09-23T17:32:21.666Z,99.90
2018-09-23T17:34:50.724Z,99.90
2018-09-23T17:37:19.797Z,99.90
2018-09-23T17:39:48.873Z,99.90
2018-09-23T17:42:17.839Z,99.90
2018-09-23T17:44:46.879Z,99.90
2018-09-23T17:47:15.862Z,99.90
2018-09-23T17:49:44.841Z,99.90
2018-09-23T17:52:13.834Z,99.90
2018-09-23T17:54:42.859Z,99.90
2018-09-23T17:57:11.937Z,99.90
2018-09-23T17:59:40.926Z,99.90
2018-09-23T18:02:09.978Z,99.90
2018-09-23T18:04:39.042Z,99.90
2018-09-23T18:07:08.511Z,99.90
2018-09-23T18:09:37.556Z,99.90
2018-09-23T18:12:06.619Z,99.90
2018-09-23T18:14:35.868Z,99.90
2018-09-23T18:17:04.862Z,99.90
2018-09-23T18:19:33.891Z,99.90
2018-09-23T18:22:02.895Z,99.90
2018-09-23T18:24:31.954Z,99.90
2018-09-23T18:27:00.988Z,99.90
2018-09-23T18:29:30.083Z,99.90
2018-09-23T18:31:59.166Z,99.90
2018-09-23T18:34:28.154Z,99.90
2018-09-23T18:36:57.190Z,99.90
2018-09-23T18:39:26.214Z,99.90
2018-09-23T18:41:55.226Z,99.90
2018-09-23T18:44:24.360Z,99.90
2018-09-23T18:47:00.727Z,99.90
2018-09-23T18:49:29.760Z,99.90
2018-09-23T18:51:58.862Z,99.90
2018-09-23T18:54:33.224Z,99.90
2018-09-23T18:57:02.302Z,99.90
2018-09-23T18:59:31.420Z,99.90
2018-09-23T19:02:00.490Z,99.90
2018-09-23T19:04:29.494Z,99.90
2018-09-23T19:06:58.626Z,99.90
2018-09-23T19:09:27.718Z,99.90
2018-09-23T19:11:56.774Z,99.90
2018-09-23T19:14:25.885Z,99.90
2018-09-23T19:16:54.969Z,99.90
2018-09-23T19:19:29.292Z,99.90
2018-09-23T19:21:58.279Z,99.90
2018-09-23T19:24:27.406Z,99.90
2018-09-23T19:26:56.466Z,99.90
2018-09-23T19:29:25.512Z,99.90
2018-09-23T19:31:54.488Z,99.90
2018-09-23T19:34:23.525Z,99.90
2018-09-23T19:36:52.517Z,99.90
2018-09-23T19:39:21.558Z,99.90
2018-09-23T19:41:50.609Z,99.90
2018-09-23T19:44:19.609Z,99.90
2018-09-23T19:46:48.693Z,99.90
2018-09-23T19:49:17.721Z,99.90
2018-09-23T19:51:46.815Z,99.90
2018-09-23T19:54:15.900Z,99.90
2018-09-23T19:56:44.984Z,99.90
2018-09-23T19:59:14.026Z,99.90
2018-09-23T20:01:43.062Z,99.90
2018-09-23T20:04:12.092Z,99.90
2018-09-23T20:06:41.239Z,99.90
2018-09-23T20:09:11.157Z,99.90
2018-09-23T20:11:40.266Z,99.90
2018-09-23T20:14:09.325Z,99.90
2018-09-23T20:16:38.386Z,99.90
2018-09-23T20:19:08.059Z,99.90
2018-09-23T20:21:37.457Z,99.90
2018-09-23T20:24:06.157Z,99.90
2018-09-23T20:26:35.165Z,99.90
2018-09-23T20:29:04.187Z,99.90
2018-09-23T20:31:33.289Z,99.90
2018-09-23T20:34:02.533Z,99.90
2018-09-23T20:36:31.644Z,99.90
2018-09-23T20:39:00.868Z,99.90
2018-09-23T20:41:29.820Z,99.90
2018-09-23T20:43:58.876Z,99.90
2018-09-23T20:46:27.949Z,99.90
2018-09-23T20:48:56.945Z,99.90
2018-09-23T20:51:25.909Z,99.90
2018-09-23T20:53:55.215Z,99.90
2018-09-23T20:56:24.157Z,99.90
2018-09-23T20:58:53.171Z,99.90
2018-09-23T21:01:22.227Z,99.90
2018-09-23T21:03:51.283Z,99.90
2018-09-23T21:06:20.281Z,99.90
2018-09-23T21:08:49.375Z,99.90
2018-09-23T21:11:18.486Z,99.90
2018-09-23T21:13:47.516Z,99.90
2018-09-23T21:16:16.527Z,99.90
2018-09-23T21:18:45.529Z,99.90
2018-09-23T21:21:14.649Z,99.90
2018-09-23T21:23:43.737Z,99.90
2018-09-23T21:26:12.915Z,99.90
2018-09-23T21:28:41.930Z,99.90
2018-09-23T21:31:11.071Z,99.90
2018-09-23T21:33:40.126Z,99.90
2018-09-23T21:36:09.137Z,99.90
2018-09-23T21:38:38.218Z,99.90
2018-09-23T21:41:07.418Z,99.90
2018-09-23T21:43:36.378Z,99.90
2018-09-23T21:46:05.342Z,99.90
2018-09-23T21:48:34.375Z,99.90
2018-09-23T21:51:03.402Z,99.90
2018-09-23T21:53:32.370Z,99.90
2018-09-23T21:56:01.453Z,99.90
2018-09-23T21:58:30.474Z,99.90
2018-09-23T22:00:59.676Z,99.90
2018-09-23T22:03:28.788Z,99.90
2018-09-23T22:05:57.823Z,99.90
2018-09-23T22:08:26.908Z,99.90
2018-09-23T22:10:55.978Z,99.90
2018-09-23T22:13:25.018Z,99.90
2018-09-23T22:15:54.114Z,99.90
2018-09-23T22:18:23.127Z,99.90
2018-09-23T22:20:52.165Z,99.90
2018-09-23T22:23:21.150Z,99.90
2018-09-23T22:25:50.144Z,99.90
2018-09-23T22:28:19.220Z,99.90
2018-09-23T22:30:48.232Z,99.90
2018-09-23T22:33:17.234Z,99.90
2018-09-23T22:35:46.242Z,99.90
2018-09-23T22:38:15.252Z,99.90
2018-09-23T22:40:44.289Z,99.90
2018-09-23T22:43:13.334Z,99.90
2018-09-23T22:45:42.341Z,99.90
2018-09-23T22:48:11.533Z,99.90
2018-09-23T22:50:40.570Z,99.90
2018-09-23T22:53:09.615Z,99.90
2018-09-23T22:55:38.614Z,99.90
2018-09-23T22:58:07.766Z,99.90
2018-09-23T23:00:36.830Z,99.90
2018-09-23T23:03:06.007Z,99.90
2018-09-23T23:05:35.124Z,99.90
2018-09-23T23:08:04.214Z,99.90
2018-09-23T23:10:33.299Z,99.90
2018-09-23T23:13:02.369Z,99.90
2018-09-23T23:15:31.353Z,99.90
2018-09-23T23:18:00.343Z,99.90
2018-09-23T23:20:29.329Z,99.90
2018-09-23T23:22:58.341Z,99.90
2018-09-23T23:25:27.346Z,99.90
2018-09-23T23:27:56.434Z,99.90
2018-09-23T23:30:25.445Z,99.90
2018-09-23T23:32:54.518Z,99.90
2018-09-23T23:35:23.527Z,99.90
2018-09-23T23:37:52.633Z,99.90
2018-09-23T23:40:21.747Z,99.90
2018-09-23T23:42:50.805Z,99.90
2018-09-23T23:45:19.765Z,99.90
2018-09-23T23:47:48.880Z,99.90
2018-09-23T23:50:17.930Z,99.90
2018-09-23T23:52:46.917Z,99.90
2018-09-23T23:55:15.887Z,99.90
2018-09-23T23:57:44.988Z,99.90
